Time;durP1;ratioP1;P1;durP2;ratioP2;P2;SDS_P1;SDS_P2;PMS_P1;PMS_P2;Temp;Humidity;BMP_temperature;BMP_pressure;BME280_temperature;BME280_humidity;BME280_pressure;Samples;Min_cycle;Max_cycle;Signal;HPM_P1;HPM_P2
2022/05/03 00:00:01;;;;;;;13.35;5.72;;;;;;;6.24;99.24;100383.44;1740867;82;21478;-80
2022/05/03 00:03:19;;;;;;;15.40;5.55;;;;;;;6.23;99.63;100375.44;1742276;82;21228;-78
2022/05/03 00:07:04;;;;;;;10.72;5.30;;;;;;;6.24;99.90;100377.14;1742406;82;21188;-78
2022/05/03 00:10:22;;;;;;;7.35;5.42;;;;;;;6.25;99.74;100378.34;1741926;82;21235;-79
2022/05/03 00:13:25;;;;;;;6.25;4.45;;;;;;;6.21;99.06;100381.03;1740812;82;21312;-80
2022/05/03 00:16:31;;;;;;;11.28;5.72;;;;;;;6.21;98.97;100379.67;1741944;82;21739;-79
2022/05/03 00:19:36;;;;;;;11.80;4.62;;;;;;;6.21;98.72;100381.50;1741909;82;21189;-80
2022/05/03 00:22:42;;;;;;;8.13;4.53;;;;;;;6.18;98.58;100374.52;1742060;82;21192;-79
2022/05/03 00:25:48;;;;;;;9.10;5.45;;;;;;;6.18;98.12;100377.23;1741968;82;21772;-79
2022/05/03 00:28:54;;;;;;;10.93;4.83;;;;;;;6.16;97.46;100369.72;1742228;82;21237;-80
2022/05/03 00:32:00;;;;;;;7.12;4.78;;;;;;;6.13;97.12;100367.31;1718924;82;21252;-80
2022/05/03 00:35:06;;;;;;;12.73;5.15;;;;;;;6.07;96.91;100366.05;1742196;82;21192;-80
2022/05/03 00:38:13;;;;;;;6.87;4.87;;;;;;;6.02;97.17;100361.56;1742216;82;21193;-80
2022/05/03 00:41:39;;;;;;;8.53;4.65;;;;;;;6.00;97.45;100369.48;1740316;82;21232;-79
2022/05/03 00:45:07;;;;;;;13.72;4.22;;;;;;;5.97;97.57;100365.19;1802531;79;21189;-79
2022/05/03 00:48:47;;;;;;;7.85;4.25;;;;;;;5.94;97.47;100368.21;1734212;82;21189;-78
2022/05/03 00:52:06;;;;;;;7.08;4.80;;;;;;;5.88;96.92;100362.84;1792164;79;21232;-79
2022/05/03 00:55:30;;;;;;;7.67;4.80;;;;;;;5.84;97.06;100364.12;1723363;82;21188;-78
2022/05/03 00:59:16;;;;;;;7.97;4.75;;;;;;;5.83;97.33;100368.31;1797831;79;21177;-78
2022/05/03 01:02:22;;;;;;;5.75;3.67;;;;;;;5.82;97.61;100366.11;1647494;87;22649;-81
2022/05/03 01:05:33;;;;;;;6.65;4.00;;;;;;;5.83;98.13;100372.39;1647415;87;21234;-78
2022/05/03 01:08:57;;;;;;;8.75;4.60;;;;;;;5.80;98.32;100370.83;1771303;81;21161;-78
2022/05/03 01:11:57;;;;;;;10.80;4.30;;;;;;;5.78;98.70;100367.89;1689881;84;21764;-78
2022/05/03 01:15:00;;;;;;;12.98;4.62;;;;;;;5.77;99.88;100371.11;1779766;79;21174;-79
2022/05/03 01:18:34;;;;;;;8.10;3.87;;;;;;;5.78;100.00;100366.03;1771760;81;21737;-78
2022/05/03 01:22:01;;;;;;;4.70;3.47;;;;;;;5.77;100.00;100358.89;1770604;81;21759;-78
2022/05/03 01:25:43;;;;;;;8.35;4.17;;;;;;;5.75;100.00;100355.48;1763728;80;21178;-78
2022/05/03 01:28:47;;;;;;;9.18;3.95;;;;;;;5.70;99.41;100360.49;1744925;80;21178;-78
2022/05/03 01:31:40;;;;;;;9.25;3.85;;;;;;;5.66;98.82;100367.20;1770583;81;21241;-79
2022/05/03 01:34:28;;;;;;;4.83;3.58;;;;;;;5.60;98.06;100361.85;1761728;81;22649;-79
2022/05/03 01:37:30;;;;;;;7.50;3.80;;;;;;;5.55;97.29;100360.54;1800594;79;21232;-79
2022/05/03 01:40:25;;;;;;;5.78;3.47;;;;;;;5.47;96.68;100359.06;1733964;82;21228;-79
2022/05/03 01:43:36;;;;;;;7.47;3.80;;;;;;;5.41;96.57;100358.25;1765982;80;21213;-79
2022/05/03 01:46:45;;;;;;;5.72;3.92;;;;;;;5.32;96.19;100354.06;1776762;80;21239;-79
2022/05/03 01:50:19;;;;;;;9.98;4.17;;;;;;;5.22;95.59;100351.84;1778136;80;21239;-79
2022/05/03 01:53:52;;;;;;;5.90;4.03;;;;;;;5.12;95.61;100348.23;1779744;80;21842;-79
2022/05/03 01:57:33;;;;;;;21.30;4.37;;;;;;;5.05;95.94;100349.81;1779744;80;21263;-79
2022/05/03 02:00:42;;;;;;;6.35;4.20;;;;;;;4.98;96.80;100354.06;1779841;80;21180;-79
2022/05/03 02:03:59;;;;;;;11.38;5.65;;;;;;;4.93;98.02;100344.13;1778228;80;21187;-79
2022/05/03 02:07:14;;;;;;;10.35;5.50;;;;;;;4.90;98.64;100346.64;1773355;80;21192;-79
2022/05/03 02:10:27;;;;;;;7.28;5.10;;;;;;;4.83;98.70;100348.17;1779599;80;21775;-79
2022/05/03 02:17:52;;;;;;;8.53;5.33;;;;;;;4.63;99.23;100349.98;1745977;82;21192;-78
2022/05/03 02:21:25;;;;;;;8.38;5.72;;;;;;;4.52;99.32;100344.67;1743466;80;21248;-79
2022/05/03 02:24:49;;;;;;;10.63;6.53;;;;;;;4.45;100.00;100352.97;1732983;81;21196;-79
2022/05/03 02:27:58;;;;;;;;;;;;;;;4.40;100.00;100351.16;1728403;83;21224;-79
2022/05/03 02:31:04;;;;;;;11.63;6.00;;;;;;;4.39;100.00;100356.23;1693087;85;20657;-79
2022/05/03 02:34:24;;;;;;;9.05;5.75;;;;;;;4.41;100.00;100356.44;1715336;83;21197;-79
2022/05/03 02:37:34;;;;;;;9.45;5.67;;;;;;;4.51;100.00;100352.41;1696247;84;21204;-78
2022/05/03 02:40:38;;;;;;;11.60;6.33;;;;;;;4.69;100.00;100353.98;1697013;84;21273;-78
2022/05/03 02:43:44;;;;;;;10.68;6.35;;;;;;;4.90;100.00;100356.13;1667659;84;21232;-78
2022/05/03 02:47:10;;;;;;;9.60;5.40;;;;;;;5.11;100.00;100354.16;1732264;81;21208;-78
2022/05/03 02:50:21;;;;;;;15.28;5.90;;;;;;;5.34;100.00;100353.41;1758081;81;21771;-78
2022/05/03 02:54:00;;;;;;;9.58;5.25;;;;;;;5.60;100.00;100353.71;1757554;81;21326;-78
2022/05/03 02:57:44;;;;;;;9.80;4.90;;;;;;;5.85;100.00;100356.33;1751554;81;21189;-79
2022/05/03 03:05:05;;;;;;;11.30;4.62;;;;;;;6.53;100.00;100358.03;1716173;83;21237;-78
2022/05/03 03:08:13;;;;;;;7.70;3.35;;;;;;;6.86;100.00;100358.80;1728955;83;21186;-78
2022/05/03 03:11:32;;;;;;;10.70;3.72;;;;;;;7.14;98.00;100352.84;1738415;81;21176;-79
2022/05/03 03:14:56;;;;;;;7.67;4.08;;;;;;;7.28;95.76;100358.26;1731522;81;21204;-79
2022/05/03 03:18:04;;;;;;;7.83;4.85;;;;;;;7.47;94.08;100359.13;1728628;83;21218;-78
2022/05/03 03:21:09;;;;;;;11.48;4.17;;;;;;;7.60;92.96;100360.45;1727584;81;21223;-79
2022/05/03 03:24:15;;;;;;;11.25;3.95;;;;;;;7.77;92.72;100366.92;1727424;83;21279;-79
2022/05/03 03:27:22;;;;;;;11.15;4.10;;;;;;;7.89;92.74;100371.09;1723794;83;21223;-79
2022/05/03 03:30:29;;;;;;;12.10;4.92;;;;;;;8.06;92.44;100382.13;1728852;83;21212;-79
2022/05/03 03:33:34;;;;;;;10.00;5.00;;;;;;;8.18;91.73;100375.39;1728075;83;21267;-78
2022/05/03 03:36:39;;;;;;;9.38;4.75;;;;;;;8.29;91.49;100386.05;1719788;81;21752;-79
2022/05/03 03:39:40;;;;;;;8.85;4.70;;;;;;;8.47;91.08;100384.67;1709913;82;21796;-79
2022/05/03 03:42:46;;;;;;;10.15;4.95;;;;;;;8.60;90.35;100386.94;1707959;84;21241;-79
2022/05/03 03:45:52;;;;;;;10.58;5.15;;;;;;;8.66;90.20;100384.44;1713738;81;21220;-79
2022/05/03 03:48:58;;;;;;;10.18;4.75;;;;;;;8.77;90.67;100381.08;1767092;81;21188;-79
2022/05/03 03:52:05;;;;;;;12.53;4.67;;;;;;;8.91;90.68;100379.95;1765861;81;21266;-79
2022/05/03 03:55:11;;;;;;;6.55;3.55;;;;;;;9.08;90.15;100382.73;1764844;81;21258;-78
2022/05/03 03:58:17;;;;;;;6.60;4.10;;;;;;;9.21;89.59;100388.06;1745836;81;21191;-79
2022/05/03 04:01:23;;;;;;;8.00;4.75;;;;;;;9.31;88.75;100395.27;1758721;81;21251;-79
2022/05/03 04:04:29;;;;;;;12.93;4.00;;;;;;;9.42;88.70;100392.24;1727326;82;21221;-79
2022/05/03 04:07:35;;;;;;;8.53;5.00;;;;;;;9.62;88.69;100396.88;1702370;84;21231;-79
2022/05/03 04:10:40;;;;;;;6.08;4.08;;;;;;;9.78;88.17;100399.63;1702237;84;21173;-79
2022/05/03 04:13:46;;;;;;;6.37;3.95;;;;;;;9.91;87.92;100399.98;1737201;81;21195;-79
2022/05/03 04:16:52;;;;;;;12.25;4.62;;;;;;;10.06;87.37;100399.30;1758593;81;21217;-79
2022/05/03 04:19:57;;;;;;;9.95;3.55;;;;;;;10.24;87.29;100398.65;1732909;82;21209;-79
2022/05/03 04:23:04;;;;;;;10.98;4.28;;;;;;;10.42;86.50;100399.31;1704750;84;21406;-79
2022/05/03 04:26:11;;;;;;;9.20;3.70;;;;;;;10.59;86.15;100400.16;1744339;81;21239;-80
2022/05/03 04:29:20;;;;;;;8.75;3.58;;;;;;;10.82;85.85;100399.38;1760620;81;21192;-80
2022/05/03 04:32:26;;;;;;;9.10;3.70;;;;;;;11.07;84.13;100392.81;1765140;81;21235;-80
2022/05/03 04:35:31;;;;;;;6.42;3.22;;;;;;;11.29;82.63;100397.14;1742915;81;21258;-80
2022/05/03 04:38:38;;;;;;;11.20;3.52;;;;;;;11.50;81.12;100397.38;1709998;81;21285;-80
2022/05/03 04:41:46;;;;;;;3.60;2.55;;;;;;;11.72;80.05;100403.94;1717076;81;21846;-80
2022/05/03 04:44:46;;;;;;;7.75;3.15;;;;;;;11.89;79.11;100403.32;1760446;81;21220;-80
2022/05/03 04:47:51;;;;;;;3.30;2.60;;;;;;;11.99;76.65;100403.92;1761023;81;21192;-80
2022/05/03 04:50:57;;;;;;;8.08;3.35;;;;;;;12.05;75.03;100407.33;1761062;81;21184;-80
2022/05/03 04:54:03;;;;;;;6.60;3.22;;;;;;;11.96;74.18;100401.05;1760912;81;21247;-80
2022/05/03 04:57:13;;;;;;;5.85;3.15;;;;;;;11.90;74.14;100403.16;1761189;81;21731;-79
2022/05/03 05:00:19;;;;;;;5.62;3.20;;;;;;;11.87;74.14;100399.41;1750853;81;21209;-80
2022/05/03 05:03:24;;;;;;;8.20;3.05;;;;;;;11.90;73.83;100405.02;1716326;83;21202;-80
2022/05/03 05:06:29;;;;;;;5.58;2.75;;;;;;;11.90;73.68;100396.30;1743501;81;21817;-80
2022/05/03 05:09:34;;;;;;;7.33;2.90;;;;;;;11.90;74.07;100401.78;1738151;81;21735;-80
2022/05/03 05:12:39;;;;;;;9.93;3.10;;;;;;;11.89;73.81;100394.58;1760872;81;21603;-80
2022/05/03 05:15:46;;;;;;;9.70;3.25;;;;;;;11.91;73.83;100399.37;1725190;83;21213;-80
2022/05/03 05:18:51;;;;;;;5.05;2.95;;;;;;;11.96;74.39;100394.72;1731851;81;21257;-80
2022/05/03 05:21:59;;;;;;;6.28;2.60;;;;;;;12.00;74.03;100391.42;1745985;81;21757;-81
2022/05/03 05:25:05;;;;;;;9.63;2.65;;;;;;;12.09;73.99;100399.56;1718612;82;21336;-80
2022/05/03 05:28:11;;;;;;;6.37;2.90;;;;;;;12.18;74.18;100391.08;1727004;82;21835;-80
2022/05/03 05:31:17;;;;;;;4.35;2.75;;;;;;;12.28;73.38;100396.34;1716636;83;21182;-80
2022/05/03 05:34:23;;;;;;;7.30;3.10;;;;;;;12.41;73.27;100389.67;1747840;81;21196;-80
2022/05/03 05:37:29;;;;;;;11.78;3.42;;;;;;;12.67;73.24;100393.36;1729351;81;21513;-80
2022/05/03 05:40:29;;;;;;;9.05;3.05;;;;;;;12.99;71.91;100383.91;1726172;81;21267;-81
2022/05/03 05:43:35;;;;;;;8.13;2.42;;;;;;;13.30;70.40;100383.70;1724734;81;21205;-80
2022/05/03 05:46:42;;;;;;;5.03;2.67;;;;;;;13.62;67.17;100384.28;1737766;81;21243;-81
2022/05/03 05:49:48;;;;;;;7.10;2.50;;;;;;;13.95;66.34;100387.38;1741226;81;21179;-81
2022/05/03 05:56:20;;;;;;;4.87;2.02;;;;;;;14.45;61.10;100380.00;1753342;81;21727;-81
2022/05/03 05:59:29;;;;;;;30.82;2.12;;;;;;;14.67;58.33;100375.84;1733676;81;21180;-80
2022/05/03 06:02:35;;;;;;;8.50;1.80;;;;;;;14.81;56.21;100376.25;1732901;81;21201;-80
2022/05/03 06:05:40;;;;;;;7.05;1.92;;;;;;;14.93;55.52;100379.30;1703686;83;21225;-80
2022/05/03 06:08:48;;;;;;;3.77;1.77;;;;;;;15.02;55.52;100372.57;1703709;83;21398;-80
2022/05/03 06:11:53;;;;;;;4.47;1.98;;;;;;;15.11;55.47;100371.88;1724866;82;21883;-80
2022/05/03 06:15:06;;;;;;;6.62;2.10;;;;;;;15.23;56.16;100372.98;1731234;83;21225;-80
2022/05/03 06:18:24;;;;;;;3.67;1.57;;;;;;;15.41;56.59;100369.13;1731883;83;21739;-79
2022/05/03 06:21:29;;;;;;;3.05;1.62;;;;;;;15.62;50.90;100364.52;1729382;83;21745;-81
2022/05/03 06:24:35;;;;;;;3.50;1.72;;;;;;;15.68;48.26;100360.45;1745927;81;21751;-81
2022/05/03 06:27:40;;;;;;;5.97;1.50;;;;;;;15.69;46.33;100369.04;1761904;81;21802;-79
2022/05/03 06:30:46;;;;;;;5.03;1.62;;;;;;;15.72;46.24;100358.98;1754932;81;21640;-80
2022/05/03 06:33:51;;;;;;;3.05;1.55;;;;;;;15.77;46.30;100360.58;1722858;82;21236;-80
2022/05/03 06:36:56;;;;;;;2.52;1.45;;;;;;;15.84;46.03;100364.19;1704602;83;21216;-80
2022/05/03 06:40:04;;;;;;;8.50;1.67;;;;;;;15.93;46.41;100359.86;1711663;82;21215;-81
2022/05/03 06:43:12;;;;;;;3.75;1.72;;;;;;;16.01;45.45;100362.42;1718986;83;21760;-79
2022/05/03 06:46:16;;;;;;;8.83;1.80;;;;;;;16.10;45.21;100358.40;1755456;81;21746;-79
2022/05/03 06:49:23;;;;;;;5.20;1.50;;;;;;;16.23;45.22;100354.27;1753529;81;21782;-79
2022/05/03 06:52:28;;;;;;;7.22;1.60;;;;;;;16.37;45.52;100356.47;1726472;83;21817;-79
2022/05/03 06:55:35;;;;;;;6.53;1.60;;;;;;;16.52;46.06;100352.13;1733255;82;21206;-79
2022/05/03 06:58:44;;;;;;;4.30;1.52;;;;;;;16.68;46.21;100353.58;1724232;81;21189;-80
2022/05/03 07:01:51;;;;;;;4.60;2.05;;;;;;;16.83;47.75;100356.98;1728222;81;21276;-80
2022/05/03 07:04:57;;;;;;;8.75;2.00;;;;;;;16.93;47.23;100342.70;1738532;81;21264;-80
2022/05/03 07:08:04;;;;;;;4.28;1.75;;;;;;;16.97;47.04;100348.97;1715872;83;21243;-80
2022/05/03 07:11:11;;;;;;;5.85;1.70;;;;;;;17.07;48.33;100343.83;1720512;82;21813;-80
2022/05/03 07:14:19;;;;;;;4.72;1.70;;;;;;;17.18;47.43;100347.00;1736578;81;21139;-80
2022/05/03 07:24:14;;;;;;;2.35;1.40;;;;;;;17.30;47.81;100349.37;1733856;81;21236;-81
2022/05/03 07:27:20;;;;;;;5.40;1.90;;;;;;;17.27;48.97;100334.64;1734132;82;21750;-81
2022/05/03 07:30:26;;;;;;;5.10;2.00;;;;;;;17.31;46.77;100340.89;1715250;83;21195;-78
2022/05/03 07:33:32;;;;;;;7.62;2.02;;;;;;;17.21;46.04;100339.64;1701079;83;21188;-80
2022/05/03 07:36:38;;;;;;;10.95;2.35;;;;;;;17.15;47.19;100335.84;1676826;84;21176;-81
2022/05/03 07:39:45;;;;;;;3.62;1.82;;;;;;;17.30;48.34;100328.65;1650208;86;21236;-81
2022/05/03 07:42:50;;;;;;;2.40;1.57;;;;;;;17.38;47.00;100333.94;1697660;84;21432;-80
2022/05/03 07:45:56;;;;;;;4.95;2.30;;;;;;;17.46;47.46;100326.77;1698685;84;21267;-80
2022/05/03 07:49:02;;;;;;;5.17;1.50;;;;;;;17.56;46.89;100323.53;1698809;84;21260;-80
2022/05/03 07:52:10;;;;;;;4.70;1.98;;;;;;;17.81;49.34;100327.21;1718788;81;21231;-80
2022/05/03 07:55:17;;;;;;;5.95;1.62;;;;;;;18.05;47.25;100319.16;1738243;81;21200;-80
2022/05/03 07:58:24;;;;;;;7.33;1.90;;;;;;;18.26;47.47;100313.79;1737518;81;21150;-79
2022/05/03 08:01:32;;;;;;;2.02;1.32;;;;;;;18.34;45.51;100310.17;1739813;81;21185;-80
2022/05/03 08:04:39;;;;;;;5.00;2.40;;;;;;;18.46;48.15;100303.91;1736499;81;21230;-80
2022/05/03 08:07:47;;;;;;;3.90;1.92;;;;;;;18.49;45.37;100308.45;1748812;81;21298;-80
2022/05/03 08:10:55;;;;;;;4.58;2.15;;;;;;;18.37;44.78;100301.42;1738750;81;21215;-79
2022/05/03 08:13:59;;;;;;;8.40;1.62;;;;;;;18.22;45.24;100298.70;1751121;81;21151;-80
2022/05/03 08:17:04;;;;;;;3.67;1.92;;;;;;;18.22;45.53;100298.16;1700092;83;21239;-79
2022/05/03 08:20:09;;;;;;;8.55;1.98;;;;;;;18.48;46.01;100297.59;1689661;84;21183;-80
2022/05/03 08:23:16;;;;;;;8.35;1.65;;;;;;;18.68;45.38;100284.91;1733011;82;21727;-80
2022/05/03 08:26:22;;;;;;;5.87;2.42;;;;;;;18.67;44.03;100288.76;1699504;84;21255;-80
2022/05/03 08:29:31;;;;;;;8.68;1.90;;;;;;;18.33;42.94;100287.72;1700980;84;21248;-80
2022/05/03 08:32:36;;;;;;;4.65;1.60;;;;;;;18.17;44.63;100285.55;1701070;84;21207;-80
2022/05/03 08:35:42;;;;;;;3.40;1.72;;;;;;;18.05;43.23;100288.19;1701013;84;21243;-80
2022/05/03 08:42:16;;;;;;;3.40;1.57;;;;;;;17.81;45.29;100280.72;1699429;84;21255;-80
2022/05/03 08:45:24;;;;;;;2.47;1.77;;;;;;;17.69;44.88;100283.34;1660374;85;21228;-80
2022/05/03 08:48:34;;;;;;;2.90;1.85;;;;;;;17.68;45.57;100277.47;1672411;85;21255;-80
2022/05/03 08:51:40;;;;;;;3.52;1.70;;;;;;;17.61;44.88;100279.45;1668200;85;21192;-80
2022/05/03 08:54:47;;;;;;;9.23;1.87;;;;;;;17.52;46.34;100276.11;1673222;84;21834;-80
2022/05/03 08:57:54;;;;;;;2.72;1.50;;;;;;;17.61;45.99;100278.92;1662501;85;21252;-80
2022/05/03 09:01:03;;;;;;;2.62;2.10;;;;;;;17.79;47.64;100274.04;1669679;85;21213;-80
2022/05/03 09:04:10;;;;;;;12.23;2.72;;;;;;;18.09;46.84;100270.59;1667994;85;21239;-79
2022/05/03 09:07:29;;;;;;;5.00;1.98;;;;;;;18.34;46.00;100263.64;1667550;85;21222;-80
2022/05/03 09:10:42;;;;;;;4.65;1.98;;;;;;;18.44;45.77;100263.95;1672743;85;21186;-79
2022/05/03 09:13:50;;;;;;;5.80;1.90;;;;;;;18.49;43.79;100267.42;1660707;85;21298;-79
2022/05/03 09:16:57;;;;;;;3.22;1.72;;;;;;;18.37;44.91;100260.42;1670764;85;21278;-80
2022/05/03 09:23:46;;;;;;;3.25;1.70;;;;;;;18.37;43.97;100254.89;1659837;85;21206;-80
2022/05/03 09:26:41;;;;;;;7.20;2.25;;;;;;;18.37;42.27;100250.73;1679505;84;21228;-80
2022/05/03 09:29:44;;;;;;;4.12;2.30;;;;;;;18.40;42.30;100244.75;1672152;84;21240;-80
2022/05/03 09:32:54;;;;;;;5.37;1.95;;;;;;;18.49;41.79;100237.84;1730997;82;21240;-80
2022/05/03 09:35:59;;;;;;;;;;;;;;;18.66;41.93;100242.20;1693218;84;21185;-81
2022/05/03 09:39:04;;;;;;;2.35;1.45;;;;;;;18.80;41.84;100232.69;1691430;84;20195;-81
2022/05/03 09:42:28;;;;;;;3.40;1.98;;;;;;;18.95;43.56;100237.83;1662126;85;21340;-81
2022/05/03 09:45:34;;;;;;;2.77;2.10;;;;;;;19.11;41.77;100231.66;1703612;82;21254;-80
2022/05/03 09:48:58;;;;;;;4.00;1.90;;;;;;;19.31;40.64;100227.75;1742498;81;21191;-80
2022/05/03 09:52:04;;;;;;;7.35;2.00;;;;;;;19.54;39.43;100216.73;1712750;83;21159;-80
2022/05/03 09:55:17;;;;;;;3.55;2.05;;;;;;;19.95;39.72;100221.97;1721225;83;21199;-80
2022/05/03 09:58:25;;;;;;;4.78;1.80;;;;;;;20.13;37.07;100219.60;1717902;83;21751;-80
2022/05/03 10:01:31;;;;;;;11.57;2.35;;;;;;;20.11;35.91;100217.08;1704174;84;21512;-80
2022/05/03 10:04:38;;;;;;;6.00;2.62;;;;;;;20.08;36.64;100212.54;1674480;85;21252;-80
2022/05/03 10:07:46;;;;;;;5.28;2.40;;;;;;;20.02;37.78;100213.52;1704337;84;21199;-80
2022/05/03 10:10:56;;;;;;;4.78;2.37;;;;;;;20.00;36.95;100212.38;1685436;84;21351;-80
2022/05/03 10:14:02;;;;;;;8.30;2.15;;;;;;;19.97;37.19;100201.74;1733036;82;21262;-80
2022/05/03 10:20:50;;;;;;;8.08;2.50;;;;;;;19.78;36.71;100198.23;1734139;82;22491;-80
2022/05/03 10:24:15;;;;;;;6.33;2.40;;;;;;;19.60;35.84;100191.38;1734090;83;21227;-80
2022/05/03 10:27:21;;;;;;;2.50;2.02;;;;;;;19.50;35.81;100191.94;1701987;84;21826;-79
2022/05/03 10:30:32;;;;;;;4.65;2.05;;;;;;;19.39;34.68;100182.51;1701178;84;22139;-80
2022/05/03 10:33:42;;;;;;;5.47;2.20;;;;;;;19.21;35.04;100188.66;1700840;84;21283;-79
2022/05/03 10:36:48;;;;;;;3.22;2.00;;;;;;;18.94;34.87;100181.25;1699963;84;21195;-79
2022/05/03 10:39:58;;;;;;;4.65;2.05;;;;;;;18.71;35.50;100170.36;1700284;84;21216;-79
2022/05/03 10:43:20;;;;;;;3.95;2.02;;;;;;;18.57;35.81;100176.57;1701131;83;21762;-79
2022/05/03 10:46:33;;;;;;;5.75;2.30;;;;;;;18.50;36.73;100177.20;1701962;83;21858;-79
2022/05/03 10:49:39;;;;;;;3.87;2.02;;;;;;;18.37;36.16;100175.44;1700616;84;21243;-79
2022/05/03 10:52:47;;;;;;;2.80;2.12;;;;;;;18.34;36.45;100172.27;1701268;84;21207;-79
2022/05/03 10:56:24;;;;;;;6.65;2.17;;;;;;;18.27;37.07;100170.13;1699929;84;21225;-79
2022/05/03 10:59:30;;;;;;;3.40;1.90;;;;;;;18.21;37.88;100165.49;1700700;84;21778;-80
2022/05/03 11:02:37;;;;;;;3.62;1.98;;;;;;;18.10;37.52;100172.10;1700702;84;21794;-80
2022/05/03 11:05:43;;;;;;;3.52;1.92;;;;;;;18.05;38.33;100169.17;1701212;84;21251;-80
2022/05/03 11:09:10;;;;;;;5.80;2.20;;;;;;;17.97;38.23;100170.84;1700619;84;21791;-80
2022/05/03 11:12:15;;;;;;;5.72;2.30;;;;;;;17.86;37.31;100158.62;1699543;84;22499;-79
2022/05/03 11:15:21;;;;;;;4.83;2.22;;;;;;;17.84;37.43;100159.39;1701030;84;21239;-80
2022/05/03 11:18:28;;;;;;;7.70;2.05;;;;;;;17.94;37.15;100155.27;1700338;84;21255;-80
2022/05/03 11:21:27;;;;;;;2.67;1.98;;;;;;;18.01;38.42;100149.95;1700480;84;21228;-80
2022/05/03 11:24:37;;;;;;;4.62;2.08;;;;;;;18.15;39.69;100143.73;1701159;84;21208;-79
2022/05/03 11:27:44;;;;;;;4.58;1.82;;;;;;;18.30;39.29;100143.34;1701989;84;21208;-80
2022/05/03 11:30:50;;;;;;;2.95;1.92;;;;;;;18.50;39.17;100141.20;1699899;84;21279;-80
2022/05/03 11:34:03;;;;;;;3.12;1.72;;;;;;;18.72;37.85;100133.80;1662124;84;21804;-80
2022/05/03 11:37:09;;;;;;;3.72;1.70;;;;;;;18.90;38.16;100134.60;1700291;84;21220;-80
2022/05/03 11:40:17;;;;;;;3.22;1.77;;;;;;;19.08;37.34;100125.39;1700667;84;21271;-80
2022/05/03 11:43:24;;;;;;;5.50;2.02;;;;;;;19.17;36.72;100126.45;1701165;84;21243;-79
2022/05/03 11:46:30;;;;;;;6.35;2.25;;;;;;;19.08;36.42;100119.00;1680914;84;21203;-80
2022/05/03 11:49:36;;;;;;;3.25;2.02;;;;;;;18.98;36.36;100116.80;1700342;84;21259;-80
2022/05/03 11:55:59;;;;;;;3.20;1.80;;;;;;;18.94;38.46;100105.88;1650892;84;21231;-80
2022/05/03 11:59:05;;;;;;;5.87;2.20;;;;;;;19.04;39.11;100104.77;1701629;84;21525;-80
2022/05/03 12:02:28;;;;;;;2.92;2.02;;;;;;;18.99;36.55;100099.64;1699701;84;21354;-80
2022/05/03 12:05:36;;;;;;;4.10;1.85;;;;;;;19.03;35.88;100093.38;1699679;84;21247;-80
2022/05/03 12:08:42;;;;;;;2.98;1.75;;;;;;;19.01;36.31;100096.95;1700729;84;21271;-80
2022/05/03 12:15:30;;;;;;;3.12;1.90;;;;;;;19.10;37.43;100087.20;1701308;84;21196;-80
2022/05/03 12:18:49;;;;;;;3.90;1.77;;;;;;;19.22;38.29;100085.83;1701309;84;21223;-80
2022/05/03 12:21:54;;;;;;;7.17;2.55;;;;;;;19.34;37.25;100081.70;1701152;84;21216;-80
2022/05/03 12:25:02;;;;;;;3.52;1.90;;;;;;;19.40;36.41;100081.58;1701549;84;21196;-80
2022/05/03 12:28:13;;;;;;;13.15;2.27;;;;;;;19.41;35.44;100075.48;1701202;84;21762;-79
2022/05/03 12:31:20;;;;;;;3.85;1.87;;;;;;;19.34;34.83;100067.84;1700311;84;21228;-80
2022/05/03 12:34:32;;;;;;;4.30;1.80;;;;;;;19.14;35.42;100066.22;1701050;84;21300;-80
2022/05/03 12:37:37;;;;;;;3.92;1.65;;;;;;;18.95;34.56;100053.53;1701218;84;21243;-80
2022/05/03 12:40:52;;;;;;;3.02;1.80;;;;;;;18.77;35.18;100057.75;1679370;84;21267;-80
2022/05/03 12:44:21;;;;;;;2.77;1.67;;;;;;;18.63;35.49;100055.17;1701362;84;21203;-79
2022/05/03 12:47:28;;;;;;;5.75;2.10;;;;;;;18.55;35.73;100046.34;1701138;84;21866;-79
2022/05/03 12:50:34;;;;;;;4.62;2.05;;;;;;;18.49;35.65;100049.52;1699933;84;21239;-79
2022/05/03 12:53:42;;;;;;;5.35;1.92;;;;;;;18.51;36.62;100046.50;1700783;84;21779;-80
2022/05/03 13:00:15;;;;;;;6.62;1.98;;;;;;;18.45;36.24;100042.75;1701361;84;21276;-80
2022/05/03 13:03:22;;;;;;;5.08;2.27;;;;;;;18.43;35.81;100036.58;1701203;84;21200;-80
2022/05/03 13:06:28;;;;;;;7.47;1.85;;;;;;;18.49;36.49;100033.41;1700081;84;21287;-80
2022/05/03 13:09:34;;;;;;;5.92;2.10;;;;;;;18.50;36.63;100029.59;1701238;84;21252;-80
2022/05/03 13:12:39;;;;;;;6.55;1.90;;;;;;;18.49;37.84;100032.03;1701125;84;21211;-80
2022/05/03 13:15:47;;;;;;;3.65;2.08;;;;;;;18.43;38.43;100029.66;1700811;84;21224;-80
2022/05/03 13:18:53;;;;;;;3.45;1.72;;;;;;;18.42;38.97;100036.28;1700876;84;21211;-79
2022/05/03 13:22:01;;;;;;;4.78;2.33;;;;;;;18.40;37.29;100030.16;1699921;84;21295;-79
2022/05/03 13:25:06;;;;;;;4.95;1.90;;;;;;;18.42;37.87;100034.06;1701278;84;21215;-79
2022/05/03 13:28:12;;;;;;;3.50;1.87;;;;;;;18.43;37.31;100036.58;1701548;84;21212;-79
2022/05/03 13:31:17;;;;;;;4.58;2.00;;;;;;;18.42;37.77;100036.28;1701067;84;22507;-79
2022/05/03 13:34:22;;;;;;;2.47;1.82;;;;;;;18.40;37.47;100031.53;1679984;84;21215;-79
2022/05/03 13:40:52;;;;;;;4.70;2.05;;;;;;;18.43;37.51;100025.51;1700770;84;21267;-80
2022/05/03 13:43:58;;;;;;;3.92;2.05;;;;;;;18.43;37.71;100028.82;1701382;84;21833;-80
2022/05/03 13:47:04;;;;;;;6.10;2.37;;;;;;;18.35;37.05;100023.93;1701423;84;21204;-80
2022/05/03 13:50:10;;;;;;;5.08;2.85;;;;;;;18.26;35.90;100024.49;1701150;84;21228;-80
2022/05/03 13:53:17;;;;;;;5.60;2.42;;;;;;;18.08;35.69;100022.05;1699924;84;21212;-79
2022/05/03 13:56:23;;;;;;;5.33;2.65;;;;;;;17.91;35.98;100022.36;1701208;84;21208;-79
2022/05/03 13:59:28;;;;;;;4.12;2.12;;;;;;;17.73;36.25;100019.05;1701380;84;21187;-80
2022/05/03 14:02:34;;;;;;;11.22;3.00;;;;;;;17.56;37.43;100017.41;1700387;84;21187;-79
2022/05/03 14:05:41;;;;;;;8.68;2.45;;;;;;;17.45;38.16;100013.16;1701207;84;21350;-79
2022/05/03 14:08:47;;;;;;;3.77;2.27;;;;;;;17.40;39.09;100008.85;1701377;84;21220;-80
2022/05/03 14:11:53;;;;;;;3.40;2.17;;;;;;;17.36;38.44;100013.98;1703624;84;21397;-80
2022/05/03 14:14:58;;;;;;;10.28;2.37;;;;;;;17.33;38.19;100014.46;1701338;84;21260;-80
2022/05/03 14:18:04;;;;;;;23.57;3.55;;;;;;;17.27;37.57;100005.70;1704041;84;21194;-79
2022/05/03 14:21:11;;;;;;;7.00;2.60;;;;;;;17.19;38.38;100000.45;1699725;84;21255;-79
2022/05/03 14:24:18;;;;;;;5.75;2.50;;;;;;;17.12;38.61;100000.50;1704393;84;21276;-79
2022/05/03 14:27:23;;;;;;;6.45;2.62;;;;;;;17.04;39.06;99998.89;1699970;84;21220;-80
2022/05/03 14:30:22;;;;;;;8.73;2.92;;;;;;;16.97;39.64;100000.85;1703995;84;21205;-80
2022/05/03 14:33:22;;;;;;;6.22;2.70;;;;;;;16.94;39.96;99999.94;1700178;84;21790;-79
2022/05/03 14:36:15;;;;;;;4.62;2.40;;;;;;;16.92;40.13;100003.45;1703972;84;21249;-79
2022/05/03 14:39:21;;;;;;;3.87;2.58;;;;;;;16.89;40.44;99998.90;1701185;84;21204;-79
2022/05/03 14:42:29;;;;;;;8.75;3.22;;;;;;;16.83;40.64;100002.87;1702848;84;21579;-80
2022/05/03 14:45:37;;;;;;;5.33;2.65;;;;;;;16.75;41.25;99994.89;1702358;84;21176;-80
2022/05/03 14:48:43;;;;;;;7.80;2.50;;;;;;;16.70;41.38;99993.81;1702775;84;21214;-79
2022/05/03 14:51:48;;;;;;;6.75;3.45;;;;;;;16.63;41.52;99993.03;1699594;84;21755;-80
2022/05/03 14:54:54;;;;;;;10.35;2.87;;;;;;;16.57;40.79;99993.39;1693908;84;21203;-81
2022/05/03 15:04:46;;;;;;;6.85;3.72;;;;;;;16.43;42.26;99984.36;1700086;84;21210;-81
2022/05/03 15:07:53;;;;;;;6.30;3.42;;;;;;;16.41;41.57;99984.25;1707409;83;21344;-80
2022/05/03 15:11:00;;;;;;;6.80;3.80;;;;;;;16.38;41.98;99989.70;1706134;84;21746;-81
2022/05/03 15:14:05;;;;;;;5.55;3.08;;;;;;;16.36;42.17;99973.88;1707091;84;21245;-81
2022/05/03 15:17:11;;;;;;;7.62;3.47;;;;;;;16.34;42.09;99974.64;1686997;84;21187;-81
2022/05/03 15:20:17;;;;;;;9.43;3.90;;;;;;;16.32;42.40;99976.23;1708390;84;21202;-81
2022/05/03 15:26:48;;;;;;;8.28;3.65;;;;;;;16.29;43.52;99979.45;1708288;84;21206;-80
2022/05/03 15:29:56;;;;;;;7.97;4.10;;;;;;;16.24;44.95;99979.81;1707051;84;21242;-79
2022/05/03 15:33:02;;;;;;;5.75;3.87;;;;;;;16.17;44.66;99976.23;1707865;84;21238;-79